Time;durP1;ratioP1;P1;durP2;ratioP2;P2;SDS_P1;SDS_P2;PMS_P1;PMS_P2;Temp;Humidity;BMP_temperature;BMP_pressure;BME280_temperature;BME280_humidity;BME280_pressure;Samples;Min_cycle;Max_cycle;Signal;HPM_P1;HPM_P2
2022/01/24 00:00:10;;;;;;;60.67;37.83;;;;;;;4.51;89.37;103439.44;5048239;28;20546;-62
2022/01/24 00:02:37;;;;;;;56.38;35.55;;;;;;;4.51;88.30;103440.31;5046249;28;20057;-63
2022/01/24 00:05:02;;;;;;;60.53;37.53;;;;;;;4.51;88.54;103436.81;5051741;28;20385;-62
2022/01/24 00:07:28;;;;;;;59.13;35.85;;;;;;;4.52;88.19;103435.88;5049344;28;20041;-63
2022/01/24 00:09:56;;;;;;;56.17;35.70;;;;;;;4.50;88.27;103432.47;5048029;28;20029;-63
2022/01/24 00:12:33;;;;;;;60.30;37.47;;;;;;;4.50;88.63;103427.22;5051560;28;20052;-63
2022/01/24 00:15:15;;;;;;;55.47;36.15;;;;;;;4.50;88.58;103428.09;5050738;28;20031;-63
2022/01/24 00:17:48;;;;;;;57.72;35.63;;;;;;;4.46;87.31;103430.84;5050920;28;20029;-63
2022/01/24 00:28:13;;;;;;;51.33;33.53;;;;;;;4.39;84.67;103430.25;5050708;28;20040;-63
2022/01/24 00:30:38;;;;;;;52.17;33.53;;;;;;;4.39;85.36;103431.09;5052495;28;20392;-62
2022/01/24 00:33:04;;;;;;;48.53;31.83;;;;;;;4.41;85.13;103429.28;5054799;28;20039;-62
2022/01/24 00:35:29;;;;;;;51.60;33.08;;;;;;;4.39;84.99;103431.09;5053486;28;20422;-62
2022/01/24 00:38:00;;;;;;;50.75;33.67;;;;;;;4.38;84.89;103424.13;5052801;28;20048;-62
2022/01/24 00:40:28;;;;;;;51.13;33.28;;;;;;;4.39;83.94;103422.38;5052571;28;20603;-63
2022/01/24 00:43:00;;;;;;;51.70;34.40;;;;;;;4.40;85.16;103417.03;5052299;28;20029;-63
2022/01/24 00:55:55;;;;;;;48.53;30.58;;;;;;;4.32;83.62;103424.34;5047088;28;20055;-62
2022/01/24 00:58:20;;;;;;;44.38;28.90;;;;;;;4.27;82.91;103421.03;5049037;28;20037;-62
2022/01/24 01:00:46;;;;;;;38.90;25.58;;;;;;;4.27;81.64;103427.16;5053482;28;20036;-62
2022/01/24 01:03:11;;;;;;;40.55;27.55;;;;;;;4.31;82.30;103433.16;5048564;28;20029;-62
2022/01/24 01:06:02;;;;;;;39.65;26.67;;;;;;;4.31;81.29;103423.47;5050662;28;20049;-63
2022/01/24 01:19:26;;;;;;;39.95;26.95;;;;;;;4.33;81.62;103415.56;5046074;28;20127;-62
2022/01/24 01:21:51;;;;;;;40.60;26.83;;;;;;;4.29;79.61;103416.56;5049705;28;20025;-62
2022/01/24 01:24:18;;;;;;;41.22;27.23;;;;;;;4.31;82.38;103412.13;5044117;28;20410;-62
2022/01/24 01:26:50;;;;;;;42.65;28.55;;;;;;;4.29;82.32;103409.56;5050449;28;20045;-63
2022/01/24 01:29:23;;;;;;;41.25;26.67;;;;;;;4.28;81.52;103406.97;5052734;28;20086;-63
2022/01/24 01:32:07;;;;;;;40.72;27.52;;;;;;;4.29;81.87;103404.31;5048594;28;20079;-63
2022/01/24 01:35:08;;;;;;;43.58;28.75;;;;;;;4.28;83.45;103406.97;5049659;28;20036;-62
2022/01/24 01:37:52;;;;;;;41.80;28.52;;;;;;;4.29;82.78;103403.44;5050396;28;20032;-62
2022/01/24 01:56:21;;;;;;;39.38;26.17;;;;;;;4.23;80.91;103415.03;5047140;28;20032;-62
2022/01/24 01:58:46;;;;;;;40.05;26.55;;;;;;;4.19;79.88;103410.81;5044727;28;20057;-62
2022/01/24 02:01:11;;;;;;;39.60;25.98;;;;;;;4.17;78.86;103405.63;5048206;28;20036;-61
2022/01/24 02:03:36;;;;;;;40.08;26.20;;;;;;;4.15;79.58;103410.06;5047013;28;20064;-63
2022/01/24 02:06:02;;;;;;;38.35;25.75;;;;;;;4.15;81.51;103407.44;5040092;28;20136;-62
2022/01/24 02:08:30;;;;;;;41.33;26.67;;;;;;;4.14;80.91;103400.47;5043365;28;20036;-62
2022/01/24 02:10:58;;;;;;;39.20;25.77;;;;;;;4.15;80.74;103412.69;5048659;28;20068;-63
2022/01/24 02:13:24;;;;;;;39.05;26.80;;;;;;;4.14;80.66;103404.84;5046813;28;20032;-63
2022/01/24 02:18:41;;;;;;;39.28;26.17;;;;;;;4.19;81.58;103402.09;5045906;28;20399;-63
2022/01/24 02:21:26;;;;;;;39.38;25.85;;;;;;;4.19;81.33;103395.03;5043448;28;20037;-63
2022/01/24 02:23:51;;;;;;;40.85;26.77;;;;;;;4.17;81.85;103389.00;5047640;28;20021;-62
2022/01/24 02:26:20;;;;;;;39.63;26.27;;;;;;;4.20;82.27;103398.53;5045614;28;20040;-63
2022/01/24 02:28:58;;;;;;;40.53;26.05;;;;;;;4.20;82.52;103395.91;5045459;28;20065;-63
2022/01/24 02:33:52;;;;;;;37.95;25.75;;;;;;;4.18;80.89;103393.34;5050530;28;20081;-63
2022/01/24 02:36:22;;;;;;;40.13;25.58;;;;;;;4.17;81.18;103395.13;5046003;28;20037;-62
2022/01/24 02:49:33;;;;;;;38.20;24.60;;;;;;;4.13;79.82;103377.75;5048106;28;20064;-63
2022/01/24 02:52:10;;;;;;;36.75;24.58;;;;;;;4.14;79.52;103384.72;5052370;28;20047;-62
2022/01/24 02:54:37;;;;;;;35.53;24.60;;;;;;;4.10;79.30;103385.72;5046662;28;20057;-63
2022/01/24 02:57:04;;;;;;;38.65;23.55;;;;;;;4.10;78.71;103385.72;5048411;28;20039;-63
2022/01/24 02:59:29;;;;;;;35.83;23.92;;;;;;;4.11;79.04;103384.84;5042871;28;20057;-63
2022/01/24 03:01:55;;;;;;;36.72;25.17;;;;;;;4.14;80.14;103374.22;5046433;28;20527;-63
2022/01/24 03:04:21;;;;;;;36.08;25.00;;;;;;;4.16;81.16;103380.25;5047136;28;20045;-62
2022/01/24 03:06:47;;;;;;;36.83;24.80;;;;;;;4.19;81.42;103381.91;5047426;28;20028;-63
2022/01/24 03:09:12;;;;;;;37.95;25.33;;;;;;;4.20;80.52;103377.53;5049035;28;20033;-63
2022/01/24 03:14:17;;;;;;;37.00;24.70;;;;;;;4.17;79.59;103373.25;5050965;28;20124;-63
2022/01/24 03:16:42;;;;;;;37.78;25.38;;;;;;;4.19;81.04;103370.56;5043697;28;20514;-63
2022/01/24 03:19:07;;;;;;;37.78;25.10;;;;;;;4.19;81.22;103373.19;5044077;28;20044;-63
2022/01/24 03:21:33;;;;;;;39.20;26.08;;;;;;;4.14;80.56;103362.84;5044910;28;20034;-63
2022/01/24 03:23:58;;;;;;;39.25;25.40;;;;;;;4.11;80.14;103369.09;5046943;28;20029;-63
2022/01/24 03:26:24;;;;;;;38.22;25.63;;;;;;;4.15;80.51;103370.66;5044917;28;20056;-62
2022/01/24 03:28:49;;;;;;;40.15;25.90;;;;;;;4.17;82.25;103365.34;5051829;28;20033;-63
2022/01/24 03:31:14;;;;;;;36.92;25.35;;;;;;;4.11;81.47;103358.56;5046588;28;20472;-63
2022/01/24 03:33:39;;;;;;;39.80;25.63;;;;;;;4.08;82.15;103358.69;5051968;28;20037;-63
2022/01/24 03:36:05;;;;;;;36.13;24.55;;;;;;;4.07;82.29;103362.22;5048565;28;20029;-62
2022/01/24 03:38:30;;;;;;;39.20;25.27;;;;;;;4.09;82.32;103360.38;5049570;28;20074;-63
2022/01/24 03:40:56;;;;;;;38.53;25.65;;;;;;;4.11;81.31;103363.84;5054344;28;20063;-62
2022/01/24 03:43:22;;;;;;;38.15;25.10;;;;;;;4.05;80.35;103364.06;5046817;28;20021;-62
2022/01/24 03:46:09;;;;;;;38.50;25.05;;;;;;;4.03;80.06;103356.22;5053321;28;20090;-63
2022/01/24 03:48:45;;;;;;;37.75;25.35;;;;;;;4.04;81.18;103357.06;5050656;28;20037;-62
2022/01/24 03:51:11;;;;;;;37.03;24.80;;;;;;;4.05;81.04;103369.31;5054015;28;20579;-63
2022/01/24 03:53:37;;;;;;;39.03;25.20;;;;;;;4.04;81.94;103362.31;5048502;28;20033;-62
2022/01/24 03:56:03;;;;;;;39.70;25.90;;;;;;;4.04;82.60;103365.81;5048431;28;20472;-62
2022/01/24 03:58:28;;;;;;;40.83;26.48;;;;;;;4.04;81.70;103364.94;5038801;28;20029;-63
2022/01/24 04:00:55;;;;;;;39.00;25.73;;;;;;;4.05;81.18;103364.06;5046272;28;20100;-62
2022/01/24 04:03:21;;;;;;;37.55;24.98;;;;;;;4.04;81.67;103364.94;5048675;28;20025;-62
2022/01/24 04:05:46;;;;;;;38.65;25.73;;;;;;;4.03;81.34;103361.47;5047215;28;20041;-63
2022/01/24 04:08:11;;;;;;;39.72;26.20;;;;;;;3.99;82.43;103354.63;5049885;28;20032;-61
2022/01/24 04:10:46;;;;;;;38.30;26.42;;;;;;;3.99;81.49;103364.28;5049717;28;20728;-63
2022/01/24 04:13:33;;;;;;;41.38;27.20;;;;;;;4.00;82.12;103361.56;5052661;28;20025;-63
2022/01/24 04:18:35;;;;;;;42.20;27.63;;;;;;;4.02;82.35;103358.91;5054409;28;20033;-62
2022/01/24 04:23:47;;;;;;;;;;;;;;;4.14;82.82;103353.19;5051647;28;20427;-63
2022/01/24 04:26:12;;;;;;;41.40;27.70;;;;;;;4.07;82.45;103351.72;5050705;28;19920;-62
2022/01/24 04:28:37;;;;;;;41.33;27.65;;;;;;;4.06;82.73;103347.38;5046748;28;20088;-62
2022/01/24 04:31:03;;;;;;;41.42;28.65;;;;;;;4.06;81.74;103344.75;5052843;28;20035;-62
2022/01/24 04:33:28;;;;;;;43.17;28.13;;;;;;;4.05;81.77;103348.31;5049167;28;20037;-63
2022/01/24 04:35:53;;;;;;;41.08;27.90;;;;;;;4.05;81.79;103353.56;5053287;28;20036;-63
2022/01/24 04:38:19;;;;;;;43.90;28.75;;;;;;;4.01;81.67;103362.44;5044161;28;20029;-63
2022/01/24 04:40:44;;;;;;;40.15;27.15;;;;;;;4.06;81.95;103360.50;5047197;28;20108;-62
2022/01/24 04:46:17;;;;;;;42.28;28.05;;;;;;;3.99;79.95;103362.50;5044134;28;20089;-62
2022/01/24 04:51:31;;;;;;;41.47;27.35;;;;;;;4.02;81.45;103364.16;5057424;28;20033;-62
2022/01/24 04:54:37;;;;;;;40.03;25.85;;;;;;;3.95;79.05;103357.41;5051284;28;20036;-62
2022/01/24 04:56:48;;;;;;;41.67;27.42;;;;;;;3.97;81.45;103360.84;5043945;28;20485;-63
2022/01/24 04:59:13;;;;;;;41.28;27.35;;;;;;;3.95;80.44;103362.66;5048684;28;20087;-63
2022/01/24 05:01:38;;;;;;;43.65;28.25;;;;;;;3.96;80.70;103361.75;5044550;28;20072;-62
2022/01/24 05:04:04;;;;;;;41.25;26.88;;;;;;;3.96;80.25;103369.63;5047180;28;20033;-62
2022/01/24 05:06:29;;;;;;;39.58;26.48;;;;;;;3.97;80.06;103360.84;5046453;28;20046;-62
2022/01/24 05:08:54;;;;;;;40.50;26.58;;;;;;;4.00;79.64;103368.63;5045237;28;20412;-63
2022/01/24 05:11:35;;;;;;;42.22;27.45;;;;;;;4.02;80.01;103369.41;5053002;28;20071;-62
2022/01/24 05:24:38;;;;;;;37.28;24.90;;;;;;;4.01;80.72;103376.41;5049449;28;20037;-63
2022/01/24 05:27:05;;;;;;;40.58;26.42;;;;;;;4.00;80.48;103371.25;5045193;28;20496;-62
2022/01/24 05:29:30;;;;;;;38.22;25.50;;;;;;;3.89;80.71;103364.59;5046727;28;20132;-63
2022/01/24 05:31:56;;;;;;;40.47;25.45;;;;;;;3.93;81.11;103359.22;5048912;28;20230;-62
2022/01/24 05:34:23;;;;;;;37.97;25.80;;;;;;;3.90;80.92;103361.06;5045433;28;20064;-62
2022/01/24 05:36:48;;;;;;;39.70;26.55;;;;;;;3.89;80.02;103354.09;5045615;28;20033;-62
2022/01/24 05:39:13;;;;;;;39.63;26.45;;;;;;;3.90;80.59;103352.34;5041668;28;20029;-62
2022/01/24 05:41:39;;;;;;;39.70;24.95;;;;;;;3.89;80.90;103348.84;5044448;28;20685;-62
2022/01/24 05:44:08;;;;;;;38.72;24.88;;;;;;;3.90;81.03;103358.44;5045161;28;20035;-62
2022/01/24 05:46:34;;;;;;;39.92;25.70;;;;;;;3.87;81.09;103350.69;5049751;28;20147;-63
2022/01/24 05:49:01;;;;;;;37.55;24.92;;;;;;;3.78;79.16;103351.00;5047068;28;20079;-61
2022/01/24 05:51:28;;;;;;;37.33;24.75;;;;;;;3.76;79.45;103363.31;5048614;28;20052;-63
2022/01/24 05:53:53;;;;;;;37.95;24.38;;;;;;;3.76;79.94;103369.41;5046941;28;20090;-63
2022/01/24 05:56:18;;;;;;;37.83;24.52;;;;;;;3.76;79.99;103363.31;5047607;28;20037;-62
2022/01/24 05:58:43;;;;;;;42.65;25.23;;;;;;;3.76;80.02;103363.31;5046231;28;20028;-62
2022/01/24 06:01:09;;;;;;;36.40;25.63;;;;;;;3.75;79.21;103362.47;5043615;28;20504;-63
2022/01/24 06:03:35;;;;;;;36.22;24.00;;;;;;;3.78;79.21;103366.75;5040952;28;20028;-62
2022/01/24 06:06:00;;;;;;;38.55;25.58;;;;;;;3.77;79.49;103370.28;5045044;28;20467;-63
2022/01/24 06:08:25;;;;;;;38.10;24.90;;;;;;;3.78;78.39;103366.75;5041949;28;20041;-63
2022/01/24 06:10:53;;;;;;;36.35;24.13;;;;;;;3.73;78.91;103363.41;5042942;28;20111;-63
2022/01/24 06:13:18;;;;;;;36.78;24.27;;;;;;;3.79;80.05;103357.94;5042474;28;20037;-62
2022/01/24 06:15:43;;;;;;;36.88;25.30;;;;;;;3.79;79.42;103362.38;5040694;28;20033;-60
2022/01/24 06:18:09;;;;;;;38.85;25.23;;;;;;;3.76;79.33;103363.31;5039490;28;20071;-60
2022/01/24 06:20:34;;;;;;;38.58;25.13;;;;;;;3.75;78.95;103361.63;5037770;28;20030;-62
2022/01/24 06:23:00;;;;;;;38.70;25.42;;;;;;;3.76;79.75;103360.69;5036153;28;20548;-62
2022/01/24 06:25:25;;;;;;;38.28;25.92;;;;;;;3.77;79.69;103360.63;5044747;28;20033;-61
2022/01/24 06:27:51;;;;;;;38.95;25.20;;;;;;;3.81;79.40;103364.03;5041082;28;20029;-63
2022/01/24 06:30:17;;;;;;;35.83;24.27;;;;;;;3.79;79.53;103368.44;5039971;28;20041;-62
2022/01/24 06:32:42;;;;;;;36.47;24.45;;;;;;;3.77;79.83;103368.50;5039896;28;20083;-62
2022/01/24 06:35:09;;;;;;;37.35;23.95;;;;;;;3.72;79.23;103366.97;5039637;28;20083;-62
2022/01/24 06:37:36;;;;;;;36.97;23.20;;;;;;;3.72;79.94;103366.97;5039515;28;20037;-62
2022/01/24 06:40:01;;;;;;;35.92;22.67;;;;;;;3.74;79.77;103370.38;5033978;28;20087;-63
2022/01/24 06:42:26;;;;;;;35.88;23.17;;;;;;;3.70;78.48;103358.28;5041819;28;20032;-62
2022/01/24 06:44:54;;;;;;;37.63;22.83;;;;;;;3.61;78.64;103359.47;5039626;28;20657;-61
2022/01/24 06:47:21;;;;;;;34.47;22.77;;;;;;;3.67;78.95;103361.00;5042386;28;20078;-62
2022/01/24 06:49:46;;;;;;;35.60;22.50;;;;;;;3.69;79.39;103367.09;5038873;28;20037;-61
2022/01/24 06:52:13;;;;;;;38.03;22.55;;;;;;;3.69;79.57;103369.72;5038536;28;20040;-62
2022/01/24 06:54:41;;;;;;;35.60;22.75;;;;;;;3.69;79.53;103367.91;5043516;28;20029;-62
2022/01/24 06:57:07;;;;;;;35.85;21.55;;;;;;;3.69;79.38;103374.97;5037578;28;20068;-63
2022/01/24 06:59:33;;;;;;;35.85;21.83;;;;;;;3.71;79.52;103375.75;5038251;28;20040;-63
2022/01/24 07:01:58;;;;;;;34.35;21.75;;;;;;;3.70;79.36;103374.03;5039383;28;20028;-63
2022/01/24 07:04:23;;;;;;;33.38;22.15;;;;;;;3.71;79.61;103378.38;5042075;28;20495;-63
2022/01/24 07:06:48;;;;;;;35.05;21.92;;;;;;;3.67;79.18;103374.13;5041286;28;20094;-63
2022/01/24 07:09:14;;;;;;;37.38;22.70;;;;;;;3.67;79.93;103376.75;5041371;28;20042;-62
2022/01/24 07:11:39;;;;;;;39.50;23.25;;;;;;;3.69;80.07;103378.41;5038188;28;20048;-63
2022/01/24 07:14:10;;;;;;;34.13;22.40;;;;;;;3.70;79.85;103384.53;5040172;28;20029;-63
2022/01/24 07:17:00;;;;;;;36.38;22.75;;;;;;;3.68;80.00;103379.34;5044207;28;20029;-63
2022/01/24 07:19:26;;;;;;;35.58;22.20;;;;;;;3.69;78.74;103378.41;5038301;28;20040;-63
2022/01/24 07:21:52;;;;;;;32.78;21.05;;;;;;;3.67;78.71;103382.00;5038892;28;20079;-63
2022/01/24 07:24:18;;;;;;;36.53;21.30;;;;;;;3.66;79.39;103382.91;5040206;28;20021;-63
2022/01/24 07:26:43;;;;;;;34.13;20.02;;;;;;;3.68;78.94;103391.59;5040125;28;20025;-64
2022/01/24 07:29:08;;;;;;;35.13;21.77;;;;;;;3.65;78.86;103389.91;5038916;28;20021;-62
2022/01/24 07:31:33;;;;;;;33.90;20.50;;;;;;;3.63;79.04;103384.75;5037421;28;20090;-62
2022/01/24 07:33:59;;;;;;;34.20;21.35;;;;;;;3.65;79.36;103386.47;5040798;28;20468;-63
2022/01/24 07:36:25;;;;;;;33.95;20.90;;;;;;;3.64;78.91;103388.22;5040153;28;20052;-63
2022/01/24 07:38:50;;;;;;;36.92;21.70;;;;;;;3.63;79.37;103383.88;5040228;28;20026;-60
2022/01/24 07:41:22;;;;;;;32.95;21.08;;;;;;;3.63;80.02;103384.75;5041415;28;20029;-63
2022/01/24 07:43:47;;;;;;;36.33;23.33;;;;;;;3.61;79.28;103386.53;5042835;28;20029;-63
2022/01/24 07:46:12;;;;;;;34.22;22.23;;;;;;;3.60;79.02;103389.25;5044587;28;20028;-63
2022/01/24 07:48:38;;;;;;;34.97;21.88;;;;;;;3.60;79.22;103390.09;5046202;28;20472;-61
2022/01/24 07:51:04;;;;;;;34.30;21.67;;;;;;;3.62;79.31;103390.88;5043697;28;20044;-63
2022/01/24 07:53:30;;;;;;;35.13;21.27;;;;;;;3.59;79.75;103383.13;5047553;28;20052;-62
2022/01/24 07:55:55;;;;;;;34.45;21.52;;;;;;;3.60;78.73;103399.75;5041388;28;20029;-63
2022/01/24 07:58:20;;;;;;;34.45;21.73;;;;;;;3.61;79.32;103399.66;5049248;28;20025;-63
2022/01/24 08:00:45;;;;;;;35.67;22.05;;;;;;;3.61;79.23;103412.78;5042554;28;20499;-63
2022/01/24 08:03:11;;;;;;;35.25;22.02;;;;;;;3.59;79.25;103417.25;5039899;28;20128;-63
2022/01/24 08:05:37;;;;;;;36.55;21.73;;;;;;;3.62;79.20;103411.88;5038234;28;20052;-59
2022/01/24 08:08:03;;;;;;;39.25;23.85;;;;;;;3.60;79.81;103421.56;5043960;28;20156;-62
2022/01/24 08:10:28;;;;;;;39.88;23.52;;;;;;;3.56;79.15;103413.88;5040039;28;20033;-63
2022/01/24 08:12:53;;;;;;;36.65;22.65;;;;;;;3.61;80.20;103417.19;5043249;28;20083;-63
2022/01/24 08:15:19;;;;;;;37.63;22.98;;;;;;;3.59;79.33;103422.50;5052159;28;20082;-63
2022/01/24 08:17:45;;;;;;;42.90;24.23;;;;;;;3.59;79.67;103424.25;5050757;28;20505;-63
2022/01/24 08:20:11;;;;;;;39.50;24.50;;;;;;;3.61;79.87;103427.69;5052719;28;20416;-63
2022/01/24 08:22:37;;;;;;;38.08;24.23;;;;;;;3.61;79.43;103423.28;5049842;28;20123;-63
2022/01/24 08:25:04;;;;;;;40.13;25.05;;;;;;;3.62;78.64;103422.38;5051270;28;20136;-63
2022/01/24 08:27:34;;;;;;;40.35;25.15;;;;;;;3.62;80.11;103424.16;5052061;28;20044;-63
2022/01/24 08:30:01;;;;;;;41.45;26.88;;;;;;;3.57;78.24;103421.69;5053237;28;20016;-63
2022/01/24 08:32:26;;;;;;;46.72;29.27;;;;;;;3.57;79.30;103421.69;5053682;28;20029;-64
2022/01/24 08:34:52;;;;;;;43.65;27.58;;;;;;;3.58;78.56;103428.66;5052357;28;20106;-63
2022/01/24 08:37:17;;;;;;;41.30;27.27;;;;;;;3.54;77.76;103427.03;5055006;28;20082;-62
2022/01/24 08:39:44;;;;;;;42.05;27.35;;;;;;;3.54;78.53;103421.78;5052844;28;20103;-63
2022/01/24 08:42:16;;;;;;;42.00;26.88;;;;;;;3.58;79.18;103423.41;5056218;28;20029;-64
2022/01/24 08:47:31;;;;;;;41.13;26.17;;;;;;;3.55;77.54;103418.25;5053058;28;20037;-63
2022/01/24 08:49:58;;;;;;;40.25;26.10;;;;;;;3.57;78.00;103426.94;5052752;28;20559;-63
2022/01/24 08:52:25;;;;;;;42.40;26.58;;;;;;;3.54;77.34;103432.28;5054196;28;20055;-63
2022/01/24 08:54:50;;;;;;;41.65;27.25;;;;;;;3.56;78.05;103430.44;5052128;28;20077;-63
2022/01/24 08:57:15;;;;;;;40.30;26.42;;;;;;;3.58;77.33;103436.53;5053309;28;20496;-63
2022/01/24 08:59:41;;;;;;;40.67;26.40;;;;;;;3.59;77.76;103435.59;5052616;28;20025;-63
2022/01/24 09:02:08;;;;;;;38.00;26.10;;;;;;;3.60;78.24;103432.06;5052436;28;20033;-62
2022/01/24 09:04:34;;;;;;;41.63;25.58;;;;;;;3.60;77.27;103437.31;5051791;28;20091;-62
2022/01/24 09:07:03;;;;;;;42.42;26.42;;;;;;;3.60;77.21;103432.06;5052508;28;20490;-63
2022/01/24 09:09:29;;;;;;;41.25;26.05;;;;;;;3.62;77.19;103430.25;5048140;28;20037;-63
2022/01/24 09:11:54;;;;;;;39.58;25.45;;;;;;;3.59;76.88;103435.59;5058526;28;20047;-62
2022/01/24 09:14:19;;;;;;;40.50;25.42;;;;;;;3.59;77.37;103430.38;5057075;28;20078;-63
2022/01/24 09:16:46;;;;;;;43.35;26.63;;;;;;;3.60;77.40;103439.94;5052007;28;20495;-63
2022/01/24 09:19:12;;;;;;;40.25;26.08;;;;;;;3.61;77.21;103438.19;5052309;28;20124;-63
2022/01/24 09:21:37;;;;;;;43.25;26.83;;;;;;;3.63;76.72;103437.22;5051921;28;20519;-63
2022/01/24 09:24:03;;;;;;;38.53;25.23;;;;;;;3.61;76.93;103436.41;5051634;28;20033;-62
2022/01/24 09:26:28;;;;;;;40.63;26.42;;;;;;;3.61;77.45;103444.28;5050504;28;20045;-63
2022/01/24 09:28:54;;;;;;;39.97;26.08;;;;;;;3.61;76.96;103444.28;5048955;28;20473;-63
2022/01/24 09:31:21;;;;;;;38.00;24.10;;;;;;;3.61;77.03;103441.66;5047937;28;20063;-63
2022/01/24 09:33:46;;;;;;;40.13;25.55;;;;;;;3.62;76.58;103434.66;5051272;28;20025;-62
2022/01/24 09:36:13;;;;;;;36.42;24.42;;;;;;;3.65;76.42;103431.06;5044269;28;20243;-62
2022/01/24 09:38:38;;;;;;;38.95;25.08;;;;;;;3.60;76.75;103420.75;5039464;28;20029;-63
2022/01/24 09:41:07;;;;;;;39.28;24.58;;;;;;;3.65;76.42;103433.69;5044814;28;20021;-63
2022/01/24 09:43:33;;;;;;;38.90;24.05;;;;;;;3.67;75.55;103437.97;5049531;28;20388;-63
2022/01/24 09:45:58;;;;;;;37.85;23.92;;;;;;;3.66;76.48;103433.66;5049057;28;20091;-63
2022/01/24 09:48:25;;;;;;;39.60;23.80;;;;;;;3.67;75.91;103437.97;5048685;28;20036;-63
2022/01/24 09:50:52;;;;;;;38.25;24.27;;;;;;;3.69;77.67;103436.16;5049658;28;20061;-62
2022/01/24 09:53:19;;;;;;;37.65;24.27;;;;;;;3.67;76.45;103431.88;5047922;28;20539;-63
2022/01/24 09:55:44;;;;;;;39.38;24.90;;;;;;;3.67;76.96;103431.88;5055757;28;20475;-62
2022/01/24 09:58:09;;;;;;;39.28;24.48;;;;;;;3.66;77.54;103428.41;5044314;28;20064;-62
2022/01/24 10:00:35;;;;;;;39.67;25.48;;;;;;;3.67;78.09;103430.09;5042393;28;20472;-59
2022/01/24 10:03:00;;;;;;;37.55;24.52;;;;;;;3.68;77.52;103433.56;5045845;28;20031;-59
2022/01/24 10:05:30;;;;;;;39.88;25.40;;;;;;;3.67;77.76;103427.50;5050338;28;20045;-59
2022/01/24 10:08:05;;;;;;;39.25;24.58;;;;;;;3.68;76.85;103428.31;5048853;28;20061;-59
2022/01/24 10:10:41;;;;;;;37.22;24.98;;;;;;;3.66;76.36;103432.78;5051475;28;20482;-58
2022/01/24 10:16:25;;;;;;;37.10;23.35;;;;;;;3.68;75.42;103428.31;5047371;28;20128;-59
2022/01/24 10:19:12;;;;;;;37.15;23.83;;;;;;;3.74;77.01;103429.00;5043835;28;20036;-59
2022/01/24 10:21:50;;;;;;;38.67;24.60;;;;;;;3.74;76.78;103417.63;5045252;28;20037;-59
2022/01/24 10:24:40;;;;;;;37.08;23.55;;;;;;;3.81;76.90;103428.78;5043208;28;20418;-62
2022/01/24 10:27:17;;;;;;;35.58;22.48;;;;;;;3.80;76.70;103435.78;5040211;28;20388;-63
2022/01/24 10:29:49;;;;;;;36.65;23.48;;;;;;;3.81;76.38;103429.66;5037631;28;20167;-63
2022/01/24 10:32:33;;;;;;;36.45;22.20;;;;;;;3.86;75.97;103432.94;5043069;28;20038;-63
2022/01/24 10:35:30;;;;;;;35.83;22.48;;;;;;;3.86;76.44;103432.94;5045311;28;20036;-63
2022/01/24 10:43:45;;;;;;;34.78;20.77;;;;;;;3.87;74.89;103423.31;5041630;28;20040;-63
2022/01/24 10:46:11;;;;;;;34.83;21.23;;;;;;;3.89;75.38;103417.09;5049742;28;20021;-63
2022/01/24 10:48:39;;;;;;;33.67;20.75;;;;;;;3.88;75.34;103412.78;5048827;28;20136;-63
2022/01/24 10:51:08;;;;;;;34.25;20.88;;;;;;;3.88;74.31;103414.53;5045844;28;20029;-63
2022/01/24 10:53:35;;;;;;;34.42;21.48;;;;;;;3.90;75.46;103413.56;5049325;28;20032;-63
2022/01/24 10:56:01;;;;;;;32.38;20.38;;;;;;;3.88;74.74;103410.16;5037755;28;20029;-63
2022/01/24 10:58:34;;;;;;;32.47;20.10;;;;;;;3.81;74.49;103402.53;5048231;28;20048;-63
2022/01/24 11:00:59;;;;;;;35.88;21.67;;;;;;;3.88;75.36;103410.16;5044859;28;20108;-61
2022/01/24 11:03:24;;;;;;;35.65;20.20;;;;;;;3.94;73.86;103410.84;5048506;28;20112;-63
2022/01/24 11:05:50;;;;;;;32.50;20.73;;;;;;;3.85;74.43;103404.97;5044253;28;20041;-63
2022/01/24 11:08:17;;;;;;;34.28;20.63;;;;;;;3.86;74.74;103406.69;5049640;28;20032;-63
2022/01/24 11:10:48;;;;;;;36.42;20.67;;;;;;;3.89;75.08;103396.09;5046158;28;20033;-63
2022/01/24 11:13:18;;;;;;;32.38;19.77;;;;;;;3.93;75.39;103406.47;5047470;28;20040;-62
2022/01/24 11:15:54;;;;;;;34.47;21.27;;;;;;;3.95;73.61;103400.25;5047868;28;20025;-63
2022/01/24 11:18:20;;;;;;;34.92;21.10;;;;;;;3.96;74.83;103401.13;5048680;28;20044;-63
2022/01/24 11:20:46;;;;;;;32.88;20.33;;;;;;;4.00;74.37;103400.13;5048649;28;20472;-63
2022/01/24 11:23:12;;;;;;;33.05;20.40;;;;;;;3.95;74.00;103400.25;5047909;28;20122;-63
2022/01/24 11:25:42;;;;;;;33.55;20.02;;;;;;;3.96;73.63;103390.63;5044036;28;20036;-63
2022/01/24 11:28:08;;;;;;;36.67;20.52;;;;;;;3.97;74.32;103406.34;5049233;28;20079;-61
2022/01/24 11:30:51;;;;;;;33.15;20.75;;;;;;;4.00;74.58;103393.09;5048196;28;20114;-63
2022/01/24 11:33:22;;;;;;;33.90;20.80;;;;;;;3.97;73.01;103387.09;5047298;28;20477;-63
2022/01/24 11:35:54;;;;;;;34.08;20.92;;;;;;;3.98;74.74;103388.78;5058122;28;20021;-63
2022/01/24 11:38:42;;;;;;;35.60;22.23;;;;;;;4.05;73.60;103392.94;5041654;28;20033;-63
2022/01/24 11:41:32;;;;;;;35.97;21.95;;;;;;;4.03;73.90;103390.34;5050863;28;20036;-63
2022/01/24 11:44:07;;;;;;;34.47;22.05;;;;;;;4.00;73.96;103403.59;5040650;28;20371;-63
2022/01/24 11:46:52;;;;;;;37.03;22.42;;;;;;;3.96;73.37;103395.88;5050256;28;20151;-63
2022/01/24 11:49:23;;;;;;;35.70;21.63;;;;;;;3.90;74.35;103397.81;5048163;28;20033;-63
2022/01/24 11:51:59;;;;;;;37.03;22.23;;;;;;;3.81;74.50;103384.16;5050811;28;20021;-63
2022/01/24 11:54:44;;;;;;;34.92;22.00;;;;;;;3.93;75.02;103395.97;5046892;28;20039;-63
2022/01/24 11:57:32;;;;;;;35.78;22.75;;;;;;;3.92;73.76;103383.75;5049096;28;20072;-63
2022/01/24 12:00:04;;;;;;;34.67;22.15;;;;;;;3.97;74.52;103381.84;5049507;28;20087;-63
2022/01/24 12:02:32;;;;;;;33.63;20.55;;;;;;;4.01;72.54;103372.94;5050410;28;20063;-63
2022/01/24 12:05:09;;;;;;;34.50;21.17;;;;;;;3.99;73.98;103369.53;5047699;28;20052;-63
2022/01/24 12:07:52;;;;;;;33.58;21.77;;;;;;;4.08;74.33;103370.94;5043451;28;20090;-63
2022/01/24 12:10:24;;;;;;;36.50;22.05;;;;;;;4.09;73.55;103360.38;5050761;28;20120;-63
2022/01/24 12:12:56;;;;;;;34.55;21.95;;;;;;;4.10;74.48;103362.09;5045445;28;20354;-63
2022/01/24 12:15:36;;;;;;;33.33;21.40;;;;;;;4.11;73.94;103363.84;5072755;28;20090;-63
2022/01/24 12:18:03;;;;;;;34.80;22.60;;;;;;;4.07;72.42;103362.22;5052647;28;20353;-62
2022/01/24 12:20:31;;;;;;;34.70;21.90;;;;;;;4.05;72.98;103364.06;5051606;28;20037;-63
2022/01/24 12:22:58;;;;;;;34.92;21.70;;;;;;;4.07;73.15;103361.34;5051348;28;20459;-62
2022/01/24 12:25:48;;;;;;;34.60;21.13;;;;;;;4.08;73.69;103363.94;5049485;28;20048;-63
2022/01/24 12:28:25;;;;;;;34.05;21.75;;;;;;;3.97;72.80;103355.59;5046389;28;20078;-63
2022/01/24 12:30:56;;;;;;;36.40;23.02;;;;;;;4.03;72.78;103360.59;5051248;28;20043;-62
2022/01/24 12:33:53;;;;;;;35.75;22.95;;;;;;;4.15;73.85;103354.06;5052096;28;20400;-63
2022/01/24 12:36:37;;;;;;;36.38;23.73;;;;;;;4.13;73.07;103362.00;5023171;28;20268;-64
2022/01/24 12:39:09;;;;;;;37.42;23.77;;;;;;;4.12;72.51;103362.91;5048788;28;20171;-63
2022/01/24 12:41:40;;;;;;;37.13;24.02;;;;;;;4.10;72.27;103353.38;5051017;28;20375;-63
2022/01/24 12:46:32;;;;;;;36.35;23.98;;;;;;;4.12;72.58;103352.41;5049004;28;20041;-64
2022/01/24 12:49:00;;;;;;;37.13;24.08;;;;;;;4.12;71.92;103349.78;5047256;28;20047;-63
2022/01/24 12:51:27;;;;;;;37.80;24.85;;;;;;;4.10;72.35;103348.97;5050019;28;20068;-63
2022/01/24 12:53:54;;;;;;;39.00;24.58;;;;;;;4.00;71.67;103343.19;5050267;28;20060;-64
2022/01/24 12:56:24;;;;;;;39.17;24.70;;;;;;;3.98;72.82;103337.16;5051831;28;20074;-63
2022/01/24 12:58:50;;;;;;;36.05;23.35;;;;;;;3.98;73.50;103344.16;5050843;28;20032;-62
2022/01/24 13:01:27;;;;;;;37.05;23.60;;;;;;;3.89;73.05;103338.34;5043828;28;20053;-63
2022/01/24 13:03:58;;;;;;;36.50;23.25;;;;;;;3.86;72.62;103334.97;5049881;28;20119;-63